createdAt,value
2023-03-22T00:01:46.579Z,12.75
2023-03-22T00:04:13.130Z,14.15
2023-03-22T00:06:39.799Z,11.65
2023-03-22T00:09:06.620Z,13.10
2023-03-22T00:11:33.102Z,13.35
2023-03-22T00:13:59.693Z,13.20
2023-03-22T00:16:26.403Z,16.63
2023-03-22T00:18:54.432Z,13.15
2023-03-22T00:21:21.279Z,12.98
2023-03-22T00:23:47.715Z,13.75
2023-03-22T00:26:15.467Z,12.95
2023-03-22T00:28:42.551Z,14.20
2023-03-22T00:31:09.496Z,13.15
2023-03-22T00:33:36.524Z,13.10
2023-03-22T00:36:08.690Z,13.35
2023-03-22T00:38:42.794Z,14.30
2023-03-22T00:41:14.337Z,15.55
2023-03-22T00:43:41.158Z,14.57
2023-03-22T00:46:08.193Z,13.10
2023-03-22T00:48:34.620Z,12.68
2023-03-22T00:51:01.235Z,15.25
2023-03-22T00:53:30.103Z,14.07
2023-03-22T00:55:57.126Z,13.25
2023-03-22T00:58:23.894Z,13.73
2023-03-22T01:00:51.591Z,13.05
2023-03-22T01:03:18.223Z,12.73
2023-03-22T01:05:46.065Z,12.45
2023-03-22T01:08:12.974Z,13.85
2023-03-22T01:10:41.023Z,12.48
2023-03-22T01:13:08.421Z,12.63
2023-03-22T01:15:35.181Z,14.00
2023-03-22T01:18:01.808Z,12.95
2023-03-22T01:20:28.460Z,14.45
2023-03-22T01:22:54.999Z,14.90
2023-03-22T01:25:21.579Z,12.20
2023-03-22T01:27:48.030Z,15.05
2023-03-22T01:30:14.689Z,11.82
2023-03-22T01:32:41.147Z,11.85
2023-03-22T01:35:09.132Z,13.63
2023-03-22T01:37:36.690Z,12.00
2023-03-22T01:40:04.646Z,12.98
2023-03-22T01:42:31.970Z,13.68
2023-03-22T01:45:32.621Z,13.13
2023-03-22T01:48:03.620Z,14.85
2023-03-22T01:50:37.447Z,12.15
2023-03-22T01:53:07.557Z,12.25
2023-03-22T01:55:35.579Z,13.68
2023-03-22T01:58:17.954Z,12.90
2023-03-22T02:00:53.348Z,12.63
2023-03-22T02:03:50.985Z,11.73
2023-03-22T02:06:20.259Z,13.30
2023-03-22T02:08:52.918Z,12.88
2023-03-22T02:12:12.299Z,12.85
2023-03-22T02:15:03.549Z,11.00
2023-03-22T02:18:16.508Z,11.80
2023-03-22T02:21:12.222Z,12.63
2023-03-22T02:23:47.084Z,12.07
2023-03-22T02:26:35.887Z,13.65
2023-03-22T02:29:14.603Z,11.73
2023-03-22T02:32:29.065Z,11.75
2023-03-22T02:35:13.958Z,13.23
2023-03-22T02:38:16.331Z,13.00
2023-03-22T02:40:58.093Z,11.77
2023-03-22T02:43:40.656Z,12.55
2023-03-22T02:46:18.592Z,11.27
2023-03-22T02:49:10.639Z,13.23
2023-03-22T02:51:42.434Z,10.73
2023-03-22T02:54:08.802Z,12.23
2023-03-22T02:56:49.881Z,13.40
2023-03-22T02:59:18.848Z,12.75
2023-03-22T03:01:50.611Z,10.80
2023-03-22T03:04:21.647Z,12.57
2023-03-22T03:06:51.831Z,11.38
2023-03-22T03:09:20.601Z,12.98
2023-03-22T03:11:50.100Z,13.00
2023-03-22T03:14:30.113Z,11.65
2023-03-22T03:17:14.995Z,13.35
2023-03-22T03:19:58.295Z,12.05
2023-03-22T03:22:43.563Z,11.38
2023-03-22T03:25:18.332Z,13.85
2023-03-22T03:28:03.477Z,13.70
2023-03-22T03:30:35.846Z,13.48
2023-03-22T03:33:09.421Z,15.52
2023-03-22T03:36:08.242Z,14.48
2023-03-22T03:38:39.850Z,13.95
2023-03-22T03:41:12.337Z,12.63
2023-03-22T03:43:40.328Z,15.05
2023-03-22T03:46:08.399Z,12.73
2023-03-22T03:48:37.500Z,13.82
2023-03-22T03:51:04.268Z,14.60
2023-03-22T03:53:31.364Z,14.73
2023-03-22T03:55:58.538Z,13.95
2023-03-22T03:58:30.690Z,13.02
2023-03-22T04:00:57.436Z,13.45
2023-03-22T04:03:40.720Z,12.32
2023-03-22T04:06:25.894Z,14.93
2023-03-22T04:08:58.048Z,12.77
2023-03-22T04:11:30.103Z,15.13
2023-03-22T04:13:59.900Z,12.23
2023-03-22T04:16:26.513Z,14.05
2023-03-22T04:18:53.385Z,12.88
2023-03-22T04:21:21.737Z,15.25
2023-03-22T04:23:55.836Z,16.52
2023-03-22T04:26:24.055Z,13.70
2023-03-22T04:29:14.275Z,13.95
2023-03-22T04:31:45.603Z,15.05
2023-03-22T04:34:21.598Z,13.30
2023-03-22T04:36:54.671Z,13.32
2023-03-22T04:39:28.369Z,12.70
2023-03-22T04:42:20.875Z,12.35
2023-03-22T04:44:50.758Z,14.20
2023-03-22T04:47:18.109Z,13.20
2023-03-22T04:49:45.266Z,14.95
2023-03-22T04:52:13.658Z,13.52
2023-03-22T04:54:47.142Z,13.05
2023-03-22T04:57:13.563Z,14.52
2023-03-22T04:59:44.847Z,15.32
2023-03-22T05:02:11.381Z,13.55
2023-03-22T05:04:41.932Z,16.27
2023-03-22T05:07:20.576Z,15.50
2023-03-22T05:09:52.102Z,14.57
2023-03-22T05:12:18.753Z,16.73
2023-03-22T05:14:50.760Z,14.77
2023-03-22T05:17:22.800Z,14.85
2023-03-22T05:19:51.910Z,13.85
2023-03-22T05:22:19.169Z,13.85
2023-03-22T05:24:48.659Z,13.45
2023-03-22T05:27:30.922Z,14.75
2023-03-22T05:30:09.962Z,14.70
2023-03-22T05:32:47.489Z,17.02
2023-03-22T05:35:14.261Z,15.00
2023-03-22T05:37:45.610Z,15.60
2023-03-22T05:40:14.757Z,14.88
2023-03-22T05:42:44.200Z,14.82
2023-03-22T05:45:22.432Z,14.27
2023-03-22T05:47:58.252Z,14.48
2023-03-22T05:50:26.673Z,14.15
2023-03-22T05:52:53.341Z,15.60
2023-03-22T05:55:53.087Z,17.15
2023-03-22T05:58:20.070Z,14.88
2023-03-22T06:00:51.312Z,14.40
2023-03-22T06:03:38.868Z,15.75
2023-03-22T06:06:13.741Z,15.23
2023-03-22T06:08:52.161Z,14.70
2023-03-22T06:11:19.274Z,15.80
2023-03-22T06:13:46.088Z,13.40
2023-03-22T06:16:14.602Z,14.57
2023-03-22T06:18:42.516Z,17.50
2023-03-22T06:21:11.856Z,16.35
2023-03-22T06:23:38.295Z,15.57
2023-03-22T06:26:05.594Z,17.95
2023-03-22T06:28:34.899Z,16.08
2023-03-22T06:31:07.617Z,13.65
2023-03-22T06:33:42.568Z,17.38
2023-03-22T06:36:21.937Z,15.05
2023-03-22T06:39:07.886Z,14.55
2023-03-22T06:41:34.686Z,18.67
2023-03-22T06:44:02.508Z,14.02
2023-03-22T06:46:58.461Z,18.15
2023-03-22T06:49:47.857Z,17.10
2023-03-22T06:52:20.214Z,16.20
2023-03-22T06:54:46.785Z,19.02
2023-03-22T06:57:13.889Z,16.83
2023-03-22T06:59:40.406Z,14.88
2023-03-22T07:02:06.972Z,16.55
2023-03-22T07:04:34.380Z,16.67
2023-03-22T07:07:00.976Z,16.42
2023-03-22T07:09:27.705Z,15.25
2023-03-22T07:11:57.658Z,18.33
2023-03-22T07:14:24.356Z,15.27
2023-03-22T07:17:03.513Z,15.18
2023-03-22T07:19:31.880Z,17.73
2023-03-22T07:22:03.611Z,19.47
2023-03-22T07:24:32.174Z,16.75
2023-03-22T07:27:00.402Z,16.67
2023-03-22T07:29:28.230Z,16.88
2023-03-22T07:31:54.805Z,16.15
2023-03-22T07:34:24.742Z,17.13
2023-03-22T07:37:03.379Z,16.40
2023-03-22T07:39:30.745Z,16.55
2023-03-22T07:41:57.991Z,16.30
2023-03-22T07:44:24.642Z,17.20
2023-03-22T07:47:09.880Z,17.67
2023-03-22T07:49:43.793Z,18.60
2023-03-22T07:52:15.291Z,17.10
2023-03-22T07:54:42.184Z,17.65
2023-03-22T07:57:09.556Z,18.73
2023-03-22T07:59:44.678Z,17.52
2023-03-22T08:02:13.888Z,18.60
2023-03-22T08:04:46.313Z,20.67
2023-03-22T08:07:26.011Z,18.85
2023-03-22T08:09:52.824Z,19.90
2023-03-22T08:12:19.648Z,19.25
2023-03-22T08:14:52.842Z,18.20
2023-03-22T08:17:23.760Z,21.75
2023-03-22T08:19:50.617Z,21.85
2023-03-22T08:22:29.638Z,19.05
2023-03-22T08:25:14.494Z,18.33
2023-03-22T08:27:41.078Z,22.35
2023-03-22T08:30:09.805Z,22.13
2023-03-22T08:32:36.506Z,21.80
2023-03-22T08:35:05.205Z,21.23
2023-03-22T08:37:31.646Z,20.15
2023-03-22T08:40:01.289Z,20.65
2023-03-22T08:42:41.637Z,21.83
2023-03-22T08:45:10.299Z,18.85
2023-03-22T08:47:43.787Z,23.63
2023-03-22T08:50:11.480Z,18.50
2023-03-22T08:52:51.512Z,21.35
2023-03-22T08:55:30.069Z,19.98
2023-03-22T08:58:11.204Z,22.27
2023-03-22T09:00:49.278Z,17.52
2023-03-22T09:03:39.266Z,20.95
2023-03-22T09:06:06.708Z,16.73
2023-03-22T09:08:38.159Z,17.27
2023-03-22T09:11:10.611Z,18.65
2023-03-22T09:13:38.038Z,20.35
2023-03-22T09:16:08.949Z,20.02
2023-03-22T09:18:36.982Z,20.25
2023-03-22T09:21:10.653Z,18.38
2023-03-22T09:23:48.901Z,19.27
2023-03-22T09:26:18.625Z,20.73
2023-03-22T09:28:48.997Z,17.77
2023-03-22T09:31:18.530Z,16.02
2023-03-22T09:33:46.934Z,17.77
2023-03-22T09:36:13.923Z,18.55
2023-03-22T09:38:42.235Z,17.85
2023-03-22T09:41:18.308Z,15.48
2023-03-22T09:43:55.615Z,15.90
2023-03-22T09:46:35.950Z,14.75
2023-03-22T09:49:07.896Z,14.50
2023-03-22T09:51:41.227Z,15.05
2023-03-22T09:54:32.693Z,15.88
2023-03-22T09:57:08.551Z,13.18
2023-03-22T09:59:47.333Z,16.05
2023-03-22T10:02:37.600Z,15.68
2023-03-22T10:05:19.040Z,13.70
2023-03-22T10:08:20.324Z,14.40
2023-03-22T10:10:47.526Z,13.65
2023-03-22T10:13:34.192Z,14.13
2023-03-22T10:16:04.855Z,13.43
2023-03-22T10:18:38.126Z,13.00
2023-03-22T10:21:17.350Z,14.55
2023-03-22T10:23:44.215Z,12.60
2023-03-22T10:26:19.848Z,11.25
2023-03-22T10:28:49.587Z,11.00
2023-03-22T10:31:21.219Z,10.85
2023-03-22T10:34:08.354Z,13.57
2023-03-22T10:36:38.965Z,10.80
2023-03-22T10:39:27.077Z,10.15
2023-03-22T10:41:57.968Z,11.90
2023-03-22T10:44:27.965Z,10.30
2023-03-22T10:46:56.883Z,12.40
2023-03-22T10:49:38.395Z,12.02
2023-03-22T10:52:30.585Z,10.02
2023-03-22T10:55:01.292Z,11.35
2023-03-22T10:57:29.546Z,10.45
2023-03-22T10:59:57.113Z,11.35
2023-03-22T11:02:30.874Z,8.20
2023-03-22T11:05:05.858Z,10.88
2023-03-22T11:07:39.959Z,7.53
2023-03-22T11:10:09.385Z,12.02
2023-03-22T11:13:11.709Z,9.07
2023-03-22T11:16:04.215Z,11.93
2023-03-22T11:18:33.532Z,11.32
2023-03-22T11:21:24.159Z,7.68
2023-03-22T11:23:58.432Z,8.25
2023-03-22T11:26:31.360Z,10.15
2023-03-22T11:29:13.657Z,12.68
2023-03-22T11:32:01.546Z,7.95
2023-03-22T11:34:30.829Z,9.35
2023-03-22T11:37:00.888Z,8.68
2023-03-22T11:39:29.229Z,8.50
2023-03-22T11:42:06.232Z,8.40
2023-03-22T11:44:35.461Z,8.73
2023-03-22T11:47:04.921Z,7.45
2023-03-22T11:49:47.388Z,7.93
2023-03-22T11:52:26.984Z,9.98
2023-03-22T11:54:55.970Z,9.15
2023-03-22T11:57:27.493Z,8.85
2023-03-22T12:00:02.355Z,6.43
2023-03-22T12:02:36.758Z,9.30
2023-03-22T12:05:14.848Z,12.30
2023-03-22T12:07:42.830Z,8.32
2023-03-22T12:10:18.530Z,11.40
2023-03-22T12:12:59.832Z,7.63
2023-03-22T12:15:31.666Z,8.40
2023-03-22T12:18:08.103Z,8.68
2023-03-22T12:20:45.579Z,11.18
2023-03-22T12:23:16.246Z,9.90
2023-03-22T12:25:50.535Z,8.65
2023-03-22T12:28:22.798Z,10.90
2023-03-22T12:30:52.625Z,10.82
2023-03-22T12:33:24.477Z,9.38
2023-03-22T12:35:56.558Z,9.98
2023-03-22T12:38:44.702Z,9.15
2023-03-22T12:41:16.911Z,8.48
2023-03-22T12:43:56.726Z,9.07
2023-03-22T12:46:39.949Z,9.10
2023-03-22T12:49:28.298Z,11.38
2023-03-22T12:52:04.408Z,11.73
2023-03-22T12:54:31.379Z,15.10
2023-03-22T12:56:58.474Z,8.70
2023-03-22T12:59:31.362Z,12.70
2023-03-22T13:02:04.616Z,8.05
2023-03-22T13:04:37.332Z,9.17
2023-03-22T13:07:32.384Z,9.45
2023-03-22T13:10:00.805Z,7.07
2023-03-22T13:12:31.469Z,9.27
2023-03-22T13:15:28.503Z,7.72
2023-03-22T13:17:59.085Z,7.70
2023-03-22T13:20:28.152Z,6.43
2023-03-22T13:22:54.634Z,6.25
2023-03-22T13:25:35.006Z,9.70
2023-03-22T13:28:19.903Z,8.85
2023-03-22T13:30:55.205Z,6.75
2023-03-22T13:33:28.316Z,6.35
2023-03-22T13:35:58.900Z,7.22
2023-03-22T13:38:41.061Z,7.15
2023-03-22T13:41:27.972Z,9.35
2023-03-22T13:43:57.293Z,6.55
2023-03-22T13:46:44.699Z,8.00
2023-03-22T13:49:25.092Z,9.18
2023-03-22T13:51:52.564Z,12.40
2023-03-22T13:54:24.525Z,9.93
2023-03-22T13:56:57.262Z,7.40
2023-03-22T13:59:27.228Z,10.75
2023-03-22T14:02:16.300Z,8.65
2023-03-22T14:05:09.169Z,9.18
2023-03-22T14:07:42.836Z,6.70
2023-03-22T14:10:40.042Z,7.80
2023-03-22T14:13:34.776Z,6.80
2023-03-22T14:16:19.939Z,9.20
2023-03-22T14:18:49.117Z,7.65
2023-03-22T14:21:21.410Z,5.93
